sensor_id;sensor_type;location;lat;lon;timestamp;P1;durP1;ratioP1;P2;durP2;ratioP2
35506;SDS011;36461;52.018;21.036;2023-06-04T00:00:56;19.00;;;12.20;;
35506;SDS011;36461;52.018;21.036;2023-06-04T00:03:46;15.50;;;10.40;;
35506;SDS011;36461;52.018;21.036;2023-06-04T00:06:14;19.50;;;11.50;;
35506;SDS011;36461;52.018;21.036;2023-06-04T00:08:42;17.20;;;9.60;;
35506;SDS011;36461;52.018;21.036;2023-06-04T00:11:11;15.50;;;10.50;;
35506;SDS011;36461;52.018;21.036;2023-06-04T00:13:39;16.80;;;9.80;;
35506;SDS011;36461;52.018;21.036;2023-06-04T00:16:07;15.30;;;9.20;;
35506;SDS011;36461;52.018;21.036;2023-06-04T00:18:35;13.90;;;8.70;;
35506;SDS011;36461;52.018;21.036;2023-06-04T00:21:04;13.50;;;8.10;;
35506;SDS011;36461;52.018;21.036;2023-06-04T00:23:32;10.20;;;6.90;;
35506;SDS011;36461;52.018;21.036;2023-06-04T00:26:01;10.30;;;7.20;;
35506;SDS011;36461;52.018;21.036;2023-06-04T00:28:29;14.10;;;7.00;;
35506;SDS011;36461;52.018;21.036;2023-06-04T00:30:57;11.20;;;6.50;;
35506;SDS011;36461;52.018;21.036;2023-06-04T00:33:25;9.80;;;6.40;;
35506;SDS011;36461;52.018;21.036;2023-06-04T00:35:54;12.30;;;6.90;;
35506;SDS011;36461;52.018;21.036;2023-06-04T00:38:22;12.00;;;7.10;;
35506;SDS011;36461;52.018;21.036;2023-06-04T00:40:50;10.40;;;6.50;;
35506;SDS011;36461;52.018;21.036;2023-06-04T00:43:18;11.00;;;6.90;;
35506;SDS011;36461;52.018;21.036;2023-06-04T00:45:46;10.80;;;6.10;;
35506;SDS011;36461;52.018;21.036;2023-06-04T00:48:15;14.80;;;7.70;;
35506;SDS011;36461;52.018;21.036;2023-06-04T00:50:43;20.10;;;10.90;;
35506;SDS011;36461;52.018;21.036;2023-06-04T00:53:11;20.90;;;10.40;;
35506;SDS011;36461;52.018;21.036;2023-06-04T00:55:39;19.30;;;9.80;;
35506;SDS011;36461;52.018;21.036;2023-06-04T00:58:07;15.70;;;9.00;;
35506;SDS011;36461;52.018;21.036;2023-06-04T01:00:37;15.10;;;8.60;;
35506;SDS011;36461;52.018;21.036;2023-06-04T01:03:07;14.50;;;7.40;;
35506;SDS011;36461;52.018;21.036;2023-06-04T01:08:36;13.70;;;7.60;;
35506;SDS011;36461;52.018;21.036;2023-06-04T01:11:05;13.20;;;7.40;;
35506;SDS011;36461;52.018;21.036;2023-06-04T01:13:34;12.30;;;6.10;;
35506;SDS011;36461;52.018;21.036;2023-06-04T01:16:02;12.70;;;7.00;;
35506;SDS011;36461;52.018;21.036;2023-06-04T01:18:31;11.50;;;6.80;;
35506;SDS011;36461;52.018;21.036;2023-06-04T01:21:06;11.60;;;6.70;;
35506;SDS011;36461;52.018;21.036;2023-06-04T01:26:10;12.60;;;7.10;;
35506;SDS011;36461;52.018;21.036;2023-06-04T01:28:40;12.40;;;6.80;;
35506;SDS011;36461;52.018;21.036;2023-06-04T01:31:09;12.50;;;6.90;;
35506;SDS011;36461;52.018;21.036;2023-06-04T01:33:40;11.90;;;6.40;;
35506;SDS011;36461;52.018;21.036;2023-06-04T01:36:08;11.70;;;7.10;;
35506;SDS011;36461;52.018;21.036;2023-06-04T01:38:38;11.40;;;6.30;;
35506;SDS011;36461;52.018;21.036;2023-06-04T01:41:06;9.90;;;5.70;;
35506;SDS011;36461;52.018;21.036;2023-06-04T01:43:35;11.00;;;5.60;;
35506;SDS011;36461;52.018;21.036;2023-06-04T01:46:03;9.00;;;5.40;;
35506;SDS011;36461;52.018;21.036;2023-06-04T01:48:33;7.70;;;4.90;;
35506;SDS011;36461;52.018;21.036;2023-06-04T01:51:02;9.60;;;5.70;;
35506;SDS011;36461;52.018;21.036;2023-06-04T01:53:30;11.10;;;5.50;;
35506;SDS011;36461;52.018;21.036;2023-06-04T01:55:59;9.60;;;5.40;;
35506;SDS011;36461;52.018;21.036;2023-06-04T01:58:27;7.30;;;4.80;;
35506;SDS011;36461;52.018;21.036;2023-06-04T02:00:57;10.50;;;5.30;;
35506;SDS011;36461;52.018;21.036;2023-06-04T02:03:28;8.40;;;5.30;;
35506;SDS011;36461;52.018;21.036;2023-06-04T02:06:00;8.40;;;5.30;;
35506;SDS011;36461;52.018;21.036;2023-06-04T02:08:28;7.50;;;4.80;;
35506;SDS011;36461;52.018;21.036;2023-06-04T02:10:58;8.90;;;5.50;;
35506;SDS011;36461;52.018;21.036;2023-06-04T02:13:26;8.80;;;5.30;;
35506;SDS011;36461;52.018;21.036;2023-06-04T02:15:54;7.60;;;5.10;;
35506;SDS011;36461;52.018;21.036;2023-06-04T02:18:23;7.80;;;5.00;;
35506;SDS011;36461;52.018;21.036;2023-06-04T02:20:52;7.50;;;4.90;;
35506;SDS011;36461;52.018;21.036;2023-06-04T02:23:20;7.60;;;5.00;;
35506;SDS011;36461;52.018;21.036;2023-06-04T02:25:49;9.30;;;5.50;;
35506;SDS011;36461;52.018;21.036;2023-06-04T02:28:17;8.30;;;5.30;;
35506;SDS011;36461;52.018;21.036;2023-06-04T02:30:46;8.30;;;5.00;;
35506;SDS011;36461;52.018;21.036;2023-06-04T02:33:15;12.60;;;5.20;;
35506;SDS011;36461;52.018;21.036;2023-06-04T02:35:44;6.60;;;4.90;;
35506;SDS011;36461;52.018;21.036;2023-06-04T02:38:12;7.80;;;4.60;;
35506;SDS011;36461;52.018;21.036;2023-06-04T02:40:41;6.50;;;4.20;;
35506;SDS011;36461;52.018;21.036;2023-06-04T02:43:11;8.20;;;4.80;;
35506;SDS011;36461;52.018;21.036;2023-06-04T02:45:39;8.10;;;4.50;;
35506;SDS011;36461;52.018;21.036;2023-06-04T02:48:07;7.60;;;4.00;;
35506;SDS011;36461;52.018;21.036;2023-06-04T02:50:36;6.30;;;3.70;;
35506;SDS011;36461;52.018;21.036;2023-06-04T02:53:04;7.90;;;4.90;;
35506;SDS011;36461;52.018;21.036;2023-06-04T02:55:32;6.20;;;4.10;;
35506;SDS011;36461;52.018;21.036;2023-06-04T02:58:00;11.70;;;5.50;;
35506;SDS011;36461;52.018;21.036;2023-06-04T03:00:29;8.00;;;4.90;;
35506;SDS011;36461;52.018;21.036;2023-06-04T03:02:58;8.30;;;5.10;;
35506;SDS011;36461;52.018;21.036;2023-06-04T03:05:30;8.80;;;5.30;;
35506;SDS011;36461;52.018;21.036;2023-06-04T03:08:01;7.90;;;6.00;;
35506;SDS011;36461;52.018;21.036;2023-06-04T03:10:31;8.20;;;5.70;;
35506;SDS011;36461;52.018;21.036;2023-06-04T03:12:59;10.40;;;7.20;;
35506;SDS011;36461;52.018;21.036;2023-06-04T03:15:28;12.00;;;7.30;;
35506;SDS011;36461;52.018;21.036;2023-06-04T03:17:56;11.00;;;6.80;;
35506;SDS011;36461;52.018;21.036;2023-06-04T03:20:25;11.30;;;6.70;;
35506;SDS011;36461;52.018;21.036;2023-06-04T03:22:53;9.10;;;5.30;;
35506;SDS011;36461;52.018;21.036;2023-06-04T03:25:21;7.30;;;5.30;;
35506;SDS011;36461;52.018;21.036;2023-06-04T03:27:50;5.90;;;4.20;;
35506;SDS011;36461;52.018;21.036;2023-06-04T03:30:18;7.00;;;4.80;;
35506;SDS011;36461;52.018;21.036;2023-06-04T03:32:55;6.40;;;4.50;;
35506;SDS011;36461;52.018;21.036;2023-06-04T03:35:24;7.50;;;4.80;;
35506;SDS011;36461;52.018;21.036;2023-06-04T03:37:52;7.50;;;4.40;;
35506;SDS011;36461;52.018;21.036;2023-06-04T03:40:21;10.40;;;4.60;;
35506;SDS011;36461;52.018;21.036;2023-06-04T03:42:49;8.10;;;4.90;;
35506;SDS011;36461;52.018;21.036;2023-06-04T03:45:19;7.10;;;4.90;;
35506;SDS011;36461;52.018;21.036;2023-06-04T03:47:48;8.40;;;4.90;;
35506;SDS011;36461;52.018;21.036;2023-06-04T03:50:17;7.70;;;5.20;;
35506;SDS011;36461;52.018;21.036;2023-06-04T03:52:48;7.80;;;4.80;;
35506;SDS011;36461;52.018;21.036;2023-06-04T03:55:18;5.90;;;4.30;;
35506;SDS011;36461;52.018;21.036;2023-06-04T03:57:48;10.60;;;5.20;;
35506;SDS011;36461;52.018;21.036;2023-06-04T04:00:16;7.50;;;4.50;;
35506;SDS011;36461;52.018;21.036;2023-06-04T04:02:47;6.70;;;4.70;;
35506;SDS011;36461;52.018;21.036;2023-06-04T04:05:21;6.50;;;4.60;;
35506;SDS011;36461;52.018;21.036;2023-06-04T04:07:50;6.20;;;4.10;;
35506;SDS011;36461;52.018;21.036;2023-06-04T04:10:21;6.00;;;4.00;;
35506;SDS011;36461;52.018;21.036;2023-06-04T04:12:49;5.30;;;4.00;;
35506;SDS011;36461;52.018;21.036;2023-06-04T04:15:20;5.50;;;4.10;;
35506;SDS011;36461;52.018;21.036;2023-06-04T04:17:49;4.60;;;3.10;;
35506;SDS011;36461;52.018;21.036;2023-06-04T04:20:18;5.70;;;3.40;;
35506;SDS011;36461;52.018;21.036;2023-06-04T04:22:50;7.70;;;3.50;;
35506;SDS011;36461;52.018;21.036;2023-06-04T04:25:19;6.90;;;3.30;;
35506;SDS011;36461;52.018;21.036;2023-06-04T04:27:48;5.60;;;3.30;;
35506;SDS011;36461;52.018;21.036;2023-06-04T04:30:16;3.60;;;3.10;;
35506;SDS011;36461;52.018;21.036;2023-06-04T04:32:47;4.60;;;3.40;;
35506;SDS011;36461;52.018;21.036;2023-06-04T04:35:24;5.20;;;3.10;;
35506;SDS011;36461;52.018;21.036;2023-06-04T04:37:55;4.90;;;3.50;;
35506;SDS011;36461;52.018;21.036;2023-06-04T04:40:24;5.30;;;3.40;;
35506;SDS011;36461;52.018;21.036;2023-06-04T04:42:54;5.30;;;3.40;;
35506;SDS011;36461;52.018;21.036;2023-06-04T04:45:22;4.20;;;3.60;;
35506;SDS011;36461;52.018;21.036;2023-06-04T04:47:51;6.40;;;3.80;;
35506;SDS011;36461;52.018;21.036;2023-06-04T04:50:20;6.20;;;3.50;;
35506;SDS011;36461;52.018;21.036;2023-06-04T04:52:49;4.60;;;3.30;;
35506;SDS011;36461;52.018;21.036;2023-06-04T04:55:17;6.10;;;3.50;;
35506;SDS011;36461;52.018;21.036;2023-06-04T04:57:46;5.90;;;3.90;;
35506;SDS011;36461;52.018;21.036;2023-06-04T05:00:15;4.20;;;3.50;;
35506;SDS011;36461;52.018;21.036;2023-06-04T05:02:44;6.20;;;3.70;;
35506;SDS011;36461;52.018;21.036;2023-06-04T05:05:13;4.90;;;3.70;;
35506;SDS011;36461;52.018;21.036;2023-06-04T05:07:42;4.70;;;3.60;;
35506;SDS011;36461;52.018;21.036;2023-06-04T05:10:10;6.50;;;3.90;;
35506;SDS011;36461;52.018;21.036;2023-06-04T05:12:39;5.90;;;3.50;;
35506;SDS011;36461;52.018;21.036;2023-06-04T05:15:08;4.80;;;3.70;;
35506;SDS011;36461;52.018;21.036;2023-06-04T05:17:40;6.50;;;3.30;;
35506;SDS011;36461;52.018;21.036;2023-06-04T05:20:09;6.00;;;3.40;;
35506;SDS011;36461;52.018;21.036;2023-06-04T05:22:41;4.40;;;3.00;;
35506;SDS011;36461;52.018;21.036;2023-06-04T05:25:11;6.50;;;2.90;;
35506;SDS011;36461;52.018;21.036;2023-06-04T05:27:40;3.90;;;2.80;;
35506;SDS011;36461;52.018;21.036;2023-06-04T05:30:10;5.40;;;2.90;;
35506;SDS011;36461;52.018;21.036;2023-06-04T05:32:39;4.00;;;2.60;;
35506;SDS011;36461;52.018;21.036;2023-06-04T05:35:11;4.80;;;2.80;;
35506;SDS011;36461;52.018;21.036;2023-06-04T05:37:40;4.80;;;2.70;;
35506;SDS011;36461;52.018;21.036;2023-06-04T05:40:10;4.10;;;2.70;;
35506;SDS011;36461;52.018;21.036;2023-06-04T05:42:40;4.10;;;2.90;;
35506;SDS011;36461;52.018;21.036;2023-06-04T05:45:09;3.90;;;2.20;;
35506;SDS011;36461;52.018;21.036;2023-06-04T05:47:38;6.30;;;2.80;;
35506;SDS011;36461;52.018;21.036;2023-06-04T05:50:06;4.70;;;2.10;;
35506;SDS011;36461;52.018;21.036;2023-06-04T05:52:35;4.10;;;2.50;;
35506;SDS011;36461;52.018;21.036;2023-06-04T05:55:07;5.70;;;2.70;;
35506;SDS011;36461;52.018;21.036;2023-06-04T05:57:38;4.40;;;2.50;;
35506;SDS011;36461;52.018;21.036;2023-06-04T06:00:06;4.30;;;2.50;;
35506;SDS011;36461;52.018;21.036;2023-06-04T06:02:41;2.90;;;1.90;;
35506;SDS011;36461;52.018;21.036;2023-06-04T06:05:21;4.60;;;2.60;;
35506;SDS011;36461;52.018;21.036;2023-06-04T06:07:50;4.10;;;2.10;;
35506;SDS011;36461;52.018;21.036;2023-06-04T06:10:18;2.90;;;1.80;;
35506;SDS011;36461;52.018;21.036;2023-06-04T06:12:47;2.50;;;1.70;;
35506;SDS011;36461;52.018;21.036;2023-06-04T06:15:15;3.30;;;2.20;;
35506;SDS011;36461;52.018;21.036;2023-06-04T06:17:46;2.70;;;1.90;;
35506;SDS011;36461;52.018;21.036;2023-06-04T06:20:15;5.80;;;1.90;;
35506;SDS011;36461;52.018;21.036;2023-06-04T06:22:46;9.30;;;5.30;;
35506;SDS011;36461;52.018;21.036;2023-06-04T06:25:16;4.10;;;2.80;;
35506;SDS011;36461;52.018;21.036;2023-06-04T06:27:54;2.90;;;1.60;;
35506;SDS011;36461;52.018;21.036;2023-06-04T06:30:23;3.50;;;1.70;;
35506;SDS011;36461;52.018;21.036;2023-06-04T06:32:51;2.70;;;1.70;;
35506;SDS011;36461;52.018;21.036;2023-06-04T06:35:23;4.20;;;1.60;;
35506;SDS011;36461;52.018;21.036;2023-06-04T06:37:51;2.80;;;1.40;;
35506;SDS011;36461;52.018;21.036;2023-06-04T06:40:19;2.40;;;1.30;;
35506;SDS011;36461;52.018;21.036;2023-06-04T06:42:50;1.90;;;1.00;;
35506;SDS011;36461;52.018;21.036;2023-06-04T06:45:19;2.80;;;1.50;;
35506;SDS011;36461;52.018;21.036;2023-06-04T06:47:47;1.70;;;1.10;;
35506;SDS011;36461;52.018;21.036;2023-06-04T06:50:16;2.80;;;1.40;;
35506;SDS011;36461;52.018;21.036;2023-06-04T06:52:44;2.90;;;1.60;;
35506;SDS011;36461;52.018;21.036;2023-06-04T06:55:12;1.60;;;1.20;;
35506;SDS011;36461;52.018;21.036;2023-06-04T06:57:41;2.40;;;1.10;;
35506;SDS011;36461;52.018;21.036;2023-06-04T07:00:10;2.10;;;1.10;;
35506;SDS011;36461;52.018;21.036;2023-06-04T07:02:39;3.30;;;1.40;;
35506;SDS011;36461;52.018;21.036;2023-06-04T07:05:07;3.40;;;1.60;;
35506;SDS011;36461;52.018;21.036;2023-06-04T07:07:36;1.60;;;1.10;;
35506;SDS011;36461;52.018;21.036;2023-06-04T07:10:05;1.50;;;0.90;;
35506;SDS011;36461;52.018;21.036;2023-06-04T07:12:33;0.90;;;0.70;;
35506;SDS011;36461;52.018;21.036;2023-06-04T07:15:02;1.60;;;0.80;;
35506;SDS011;36461;52.018;21.036;2023-06-04T07:17:30;2.60;;;0.90;;
35506;SDS011;36461;52.018;21.036;2023-06-04T07:19:59;3.00;;;1.10;;
35506;SDS011;36461;52.018;21.036;2023-06-04T07:22:28;1.30;;;0.60;;
35506;SDS011;36461;52.018;21.036;2023-06-04T07:24:56;3.10;;;0.90;;
35506;SDS011;36461;52.018;21.036;2023-06-04T07:27:24;1.30;;;0.80;;
35506;SDS011;36461;52.018;21.036;2023-06-04T07:29:54;1.40;;;0.80;;
35506;SDS011;36461;52.018;21.036;2023-06-04T07:32:22;1.50;;;0.80;;
35506;SDS011;36461;52.018;21.036;2023-06-04T07:34:50;0.90;;;0.80;;
35506;SDS011;36461;52.018;21.036;2023-06-04T07:37:18;2.20;;;0.90;;
35506;SDS011;36461;52.018;21.036;2023-06-04T07:39:46;3.30;;;0.70;;
35506;SDS011;36461;52.018;21.036;2023-06-04T07:42:14;1.00;;;0.90;;
35506;SDS011;36461;52.018;21.036;2023-06-04T07:44:42;1.70;;;0.80;;
35506;SDS011;36461;52.018;21.036;2023-06-04T07:47:10;1.50;;;0.80;;
35506;SDS011;36461;52.018;21.036;2023-06-04T07:49:38;2.20;;;0.80;;
35506;SDS011;36461;52.018;21.036;2023-06-04T07:52:27;1.20;;;0.80;;
35506;SDS011;36461;52.018;21.036;2023-06-04T07:54:55;1.10;;;0.80;;
35506;SDS011;36461;52.018;21.036;2023-06-04T07:57:23;2.40;;;0.70;;
35506;SDS011;36461;52.018;21.036;2023-06-04T07:59:51;1.60;;;0.70;;
35506;SDS011;36461;52.018;21.036;2023-06-04T08:02:20;1.80;;;0.70;;
35506;SDS011;36461;52.018;21.036;2023-06-04T08:04:48;2.70;;;0.80;;
35506;SDS011;36461;52.018;21.036;2023-06-04T08:07:17;1.40;;;0.60;;
35506;SDS011;36461;52.018;21.036;2023-06-04T08:09:45;2.30;;;0.80;;
35506;SDS011;36461;52.018;21.036;2023-06-04T08:12:13;1.50;;;0.70;;
35506;SDS011;36461;52.018;21.036;2023-06-04T08:14:44;2.70;;;0.70;;
35506;SDS011;36461;52.018;21.036;2023-06-04T08:17:12;2.30;;;0.70;;
35506;SDS011;36461;52.018;21.036;2023-06-04T08:19:41;2.70;;;0.80;;
35506;SDS011;36461;52.018;21.036;2023-06-04T08:22:09;2.30;;;0.80;;
35506;SDS011;36461;52.018;21.036;2023-06-04T08:24:39;2.30;;;0.70;;
35506;SDS011;36461;52.018;21.036;2023-06-04T08:27:08;2.40;;;0.80;;
35506;SDS011;36461;52.018;21.036;2023-06-04T08:29:36;1.50;;;0.90;;
35506;SDS011;36461;52.018;21.036;2023-06-04T08:32:04;1.20;;;0.80;;
35506;SDS011;36461;52.018;21.036;2023-06-04T08:34:33;1.30;;;0.70;;
35506;SDS011;36461;52.018;21.036;2023-06-04T08:37:02;1.70;;;0.70;;
35506;SDS011;36461;52.018;21.036;2023-06-04T08:39:30;1.30;;;0.70;;
35506;SDS011;36461;52.018;21.036;2023-06-04T08:42:03;2.10;;;0.90;;
35506;SDS011;36461;52.018;21.036;2023-06-04T08:44:35;3.60;;;0.80;;
35506;SDS011;36461;52.018;21.036;2023-06-04T08:47:05;3.30;;;0.80;;
35506;SDS011;36461;52.018;21.036;2023-06-04T08:49:35;1.10;;;0.80;;
35506;SDS011;36461;52.018;21.036;2023-06-04T08:52:05;1.60;;;0.80;;
35506;SDS011;36461;52.018;21.036;2023-06-04T08:54:35;3.90;;;1.60;;
35506;SDS011;36461;52.018;21.036;2023-06-04T08:57:05;2.60;;;0.80;;
35506;SDS011;36461;52.018;21.036;2023-06-04T08:59:34;1.10;;;0.70;;
35506;SDS011;36461;52.018;21.036;2023-06-04T09:02:04;1.30;;;0.80;;
35506;SDS011;36461;52.018;21.036;2023-06-04T09:04:32;0.90;;;0.60;;
35506;SDS011;36461;52.018;21.036;2023-06-04T09:07:02;2.20;;;0.70;;
35506;SDS011;36461;52.018;21.036;2023-06-04T09:09:30;0.90;;;0.60;;
35506;SDS011;36461;52.018;21.036;2023-06-04T09:12:02;1.30;;;0.80;;
35506;SDS011;36461;52.018;21.036;2023-06-04T09:14:33;1.50;;;0.90;;
35506;SDS011;36461;52.018;21.036;2023-06-04T09:17:02;1.10;;;0.70;;
35506;SDS011;36461;52.018;21.036;2023-06-04T09:19:30;0.60;;;0.60;;
35506;SDS011;36461;52.018;21.036;2023-06-04T09:21:59;1.00;;;0.70;;
35506;SDS011;36461;52.018;21.036;2023-06-04T09:24:40;2.50;;;1.00;;
35506;SDS011;36461;52.018;21.036;2023-06-04T09:27:23;2.20;;;1.00;;
35506;SDS011;36461;52.018;21.036;2023-06-04T09:29:54;1.60;;;1.00;;
35506;SDS011;36461;52.018;21.036;2023-06-04T09:32:24;2.60;;;0.90;;
35506;SDS011;36461;52.018;21.036;2023-06-04T09:35:07;3.00;;;0.70;;
35506;SDS011;36461;52.018;21.036;2023-06-04T09:37:38;1.70;;;1.00;;
35506;SDS011;36461;52.018;21.036;2023-06-04T09:40:07;2.30;;;0.80;;
35506;SDS011;36461;52.018;21.036;2023-06-04T09:45:29;1.30;;;0.70;;
35506;SDS011;36461;52.018;21.036;2023-06-04T09:47:59;1.10;;;0.80;;
35506;SDS011;36461;52.018;21.036;2023-06-04T09:50:32;3.50;;;0.90;;
35506;SDS011;36461;52.018;21.036;2023-06-04T09:53:12;1.80;;;0.80;;
35506;SDS011;36461;52.018;21.036;2023-06-04T09:55:44;2.20;;;0.80;;
35506;SDS011;36461;52.018;21.036;2023-06-04T09:58:12;2.40;;;0.80;;
35506;SDS011;36461;52.018;21.036;2023-06-04T10:00:41;2.30;;;0.70;;
35506;SDS011;36461;52.018;21.036;2023-06-04T10:03:13;1.80;;;0.70;;
35506;SDS011;36461;52.018;21.036;2023-06-04T10:05:45;2.40;;;0.80;;
35506;SDS011;36461;52.018;21.036;2023-06-04T10:08:13;1.30;;;0.80;;
35506;SDS011;36461;52.018;21.036;2023-06-04T10:10:45;2.20;;;0.50;;
35506;SDS011;36461;52.018;21.036;2023-06-04T10:13:15;1.40;;;0.70;;
35506;SDS011;36461;52.018;21.036;2023-06-04T10:15:45;2.20;;;0.90;;
35506;SDS011;36461;52.018;21.036;2023-06-04T10:18:14;1.60;;;0.70;;
35506;SDS011;36461;52.018;21.036;2023-06-04T10:20:44;1.40;;;0.90;;
35506;SDS011;36461;52.018;21.036;2023-06-04T10:23:13;1.70;;;1.00;;
35506;SDS011;36461;52.018;21.036;2023-06-04T10:25:42;1.00;;;0.70;;
35506;SDS011;36461;52.018;21.036;2023-06-04T10:28:12;1.80;;;0.70;;
35506;SDS011;36461;52.018;21.036;2023-06-04T10:30:41;1.70;;;0.70;;
35506;SDS011;36461;52.018;21.036;2023-06-04T10:33:09;1.40;;;0.80;;
35506;SDS011;36461;52.018;21.036;2023-06-04T10:35:38;1.50;;;0.90;;
35506;SDS011;36461;52.018;21.036;2023-06-04T10:38:10;3.30;;;0.80;;
35506;SDS011;36461;52.018;21.036;2023-06-04T10:40:41;1.00;;;0.90;;
35506;SDS011;36461;52.018;21.036;2023-06-04T10:43:12;2.60;;;0.80;;
35506;SDS011;36461;52.018;21.036;2023-06-04T10:45:44;2.00;;;0.90;;
35506;SDS011;36461;52.018;21.036;2023-06-04T10:48:13;1.50;;;0.90;;
35506;SDS011;36461;52.018;21.036;2023-06-04T10:50:52;2.00;;;0.70;;
35506;SDS011;36461;52.018;21.036;2023-06-04T10:53:20;2.50;;;0.80;;
35506;SDS011;36461;52.018;21.036;2023-06-04T10:55:50;1.50;;;0.80;;
35506;SDS011;36461;52.018;21.036;2023-06-04T10:58:18;2.00;;;0.90;;
35506;SDS011;36461;52.018;21.036;2023-06-04T11:00:48;2.30;;;0.80;;
35506;SDS011;36461;52.018;21.036;2023-06-04T11:03:17;1.50;;;0.90;;
35506;SDS011;36461;52.018;21.036;2023-06-04T11:05:46;1.30;;;0.70;;
35506;SDS011;36461;52.018;21.036;2023-06-04T11:08:26;2.10;;;0.70;;
35506;SDS011;36461;52.018;21.036;2023-06-04T11:10:56;1.30;;;0.90;;
35506;SDS011;36461;52.018;21.036;2023-06-04T11:13:24;1.30;;;1.00;;
35506;SDS011;36461;52.018;21.036;2023-06-04T11:15:53;3.90;;;1.10;;
35506;SDS011;36461;52.018;21.036;2023-06-04T11:18:22;1.20;;;0.90;;
35506;SDS011;36461;52.018;21.036;2023-06-04T11:20:58;1.80;;;0.80;;
35506;SDS011;36461;52.018;21.036;2023-06-04T11:23:27;2.70;;;0.80;;
35506;SDS011;36461;52.018;21.036;2023-06-04T11:25:56;1.10;;;0.70;;
35506;SDS011;36461;52.018;21.036;2023-06-04T11:28:24;2.20;;;0.80;;
35506;SDS011;36461;52.018;21.036;2023-06-04T11:30:56;1.40;;;0.70;;
35506;SDS011;36461;52.018;21.036;2023-06-04T11:33:46;1.50;;;0.80;;
35506;SDS011;36461;52.018;21.036;2023-06-04T11:36:25;1.20;;;1.00;;
35506;SDS011;36461;52.018;21.036;2023-06-04T11:41:30;1.60;;;0.70;;
35506;SDS011;36461;52.018;21.036;2023-06-04T11:44:03;2.10;;;0.90;;
35506;SDS011;36461;52.018;21.036;2023-06-04T11:46:41;0.80;;;0.70;;
35506;SDS011;36461;52.018;21.036;2023-06-04T11:49:16;2.50;;;0.90;;
35506;SDS011;36461;52.018;21.036;2023-06-04T11:51:46;3.60;;;0.80;;
35506;SDS011;36461;52.018;21.036;2023-06-04T11:54:16;1.00;;;0.80;;
35506;SDS011;36461;52.018;21.036;2023-06-04T11:56:45;1.40;;;0.80;;
35506;SDS011;36461;52.018;21.036;2023-06-04T11:59:16;1.70;;;0.90;;
35506;SDS011;36461;52.018;21.036;2023-06-04T12:01:46;1.70;;;0.70;;
35506;SDS011;36461;52.018;21.036;2023-06-04T12:04:17;1.40;;;0.70;;
35506;SDS011;36461;52.018;21.036;2023-06-04T12:06:56;0.90;;;0.70;;
35506;SDS011;36461;52.018;21.036;2023-06-04T12:09:28;1.80;;;0.90;;
35506;SDS011;36461;52.018;21.036;2023-06-04T12:11:59;1.30;;;0.90;;
35506;SDS011;36461;52.018;21.036;2023-06-04T12:14:32;1.80;;;1.00;;
35506;SDS011;36461;52.018;21.036;2023-06-04T12:17:05;1.70;;;1.00;;
35506;SDS011;36461;52.018;21.036;2023-06-04T12:19:48;1.40;;;0.70;;
35506;SDS011;36461;52.018;21.036;2023-06-04T12:22:18;1.00;;;0.70;;
35506;SDS011;36461;52.018;21.036;2023-06-04T12:24:50;2.00;;;0.90;;
35506;SDS011;36461;52.018;21.036;2023-06-04T12:27:24;2.00;;;0.90;;
35506;SDS011;36461;52.018;21.036;2023-06-04T12:29:56;1.30;;;0.70;;
35506;SDS011;36461;52.018;21.036;2023-06-04T12:32:26;1.40;;;0.70;;
35506;SDS011;36461;52.018;21.036;2023-06-04T12:34:56;2.90;;;0.80;;
35506;SDS011;36461;52.018;21.036;2023-06-04T12:37:24;2.90;;;1.90;;
35506;SDS011;36461;52.018;21.036;2023-06-04T12:39:56;2.80;;;1.00;;
35506;SDS011;36461;52.018;21.036;2023-06-04T12:42:24;1.70;;;0.90;;
35506;SDS011;36461;52.018;21.036;2023-06-04T12:44:52;1.30;;;0.80;;
35506;SDS011;36461;52.018;21.036;2023-06-04T12:47:20;1.70;;;1.10;;
35506;SDS011;36461;52.018;21.036;2023-06-04T12:49:49;2.50;;;1.30;;
35506;SDS011;36461;52.018;21.036;2023-06-04T12:52:17;1.10;;;1.00;;
35506;SDS011;36461;52.018;21.036;2023-06-04T12:54:45;2.20;;;1.30;;
35506;SDS011;36461;52.018;21.036;2023-06-04T12:57:14;1.30;;;1.10;;
35506;SDS011;36461;52.018;21.036;2023-06-04T12:59:42;7.40;;;3.20;;
35506;SDS011;36461;52.018;21.036;2023-06-04T13:02:10;1.90;;;1.00;;
35506;SDS011;36461;52.018;21.036;2023-06-04T13:04:39;1.30;;;1.00;;
35506;SDS011;36461;52.018;21.036;2023-06-04T13:07:09;3.00;;;1.80;;
35506;SDS011;36461;52.018;21.036;2023-06-04T13:09:37;4.30;;;1.90;;
35506;SDS011;36461;52.018;21.036;2023-06-04T13:12:06;2.20;;;1.50;;
35506;SDS011;36461;52.018;21.036;2023-06-04T13:14:37;1.40;;;1.10;;
35506;SDS011;36461;52.018;21.036;2023-06-04T13:17:05;1.70;;;1.20;;
35506;SDS011;36461;52.018;21.036;2023-06-04T13:19:49;1.30;;;1.00;;
35506;SDS011;36461;52.018;21.036;2023-06-04T13:22:17;1.60;;;0.90;;
35506;SDS011;36461;52.018;21.036;2023-06-04T13:24:46;2.40;;;0.80;;
35506;SDS011;36461;52.018;21.036;2023-06-04T13:27:14;2.90;;;0.80;;
35506;SDS011;36461;52.018;21.036;2023-06-04T13:38:52;2.30;;;0.70;;
35506;SDS011;36461;52.018;21.036;2023-06-04T13:41:22;1.00;;;0.70;;
35506;SDS011;36461;52.018;21.036;2023-06-04T13:43:51;1.10;;;0.60;;
35506;SDS011;36461;52.018;21.036;2023-06-04T13:46:19;1.40;;;0.70;;
35506;SDS011;36461;52.018;21.036;2023-06-04T13:48:47;1.40;;;0.80;;
35506;SDS011;36461;52.018;21.036;2023-06-04T13:51:15;1.60;;;1.00;;
35506;SDS011;36461;52.018;21.036;2023-06-04T13:53:43;1.40;;;0.80;;
35506;SDS011;36461;52.018;21.036;2023-06-04T13:56:11;0.80;;;0.60;;
35506;SDS011;36461;52.018;21.036;2023-06-04T13:58:40;1.30;;;0.50;;
35506;SDS011;36461;52.018;21.036;2023-06-04T14:01:08;1.20;;;0.70;;
35506;SDS011;36461;52.018;21.036;2023-06-04T14:03:37;1.40;;;0.80;;
35506;SDS011;36461;52.018;21.036;2023-06-04T14:06:06;1.10;;;0.80;;
35506;SDS011;36461;52.018;21.036;2023-06-04T14:13:08;3.10;;;0.70;;
35506;SDS011;36461;52.018;21.036;2023-06-04T14:15:37;2.10;;;1.00;;
35506;SDS011;36461;52.018;21.036;2023-06-04T14:18:05;2.50;;;0.80;;
35506;SDS011;36461;52.018;21.036;2023-06-04T14:20:35;1.40;;;0.70;;
35506;SDS011;36461;52.018;21.036;2023-06-04T14:23:04;0.60;;;0.60;;
35506;SDS011;36461;52.018;21.036;2023-06-04T14:25:32;1.70;;;0.70;;
35506;SDS011;36461;52.018;21.036;2023-06-04T14:28:04;2.70;;;0.80;;
35506;SDS011;36461;52.018;21.036;2023-06-04T14:30:32;0.70;;;0.60;;
35506;SDS011;36461;52.018;21.036;2023-06-04T14:33:00;4.10;;;0.90;;
35506;SDS011;36461;52.018;21.036;2023-06-04T14:35:29;0.90;;;0.70;;
35506;SDS011;36461;52.018;21.036;2023-06-04T14:37:57;1.80;;;0.60;;
35506;SDS011;36461;52.018;21.036;2023-06-04T14:40:25;1.50;;;0.80;;
35506;SDS011;36461;52.018;21.036;2023-06-04T14:42:54;1.20;;;0.70;;
35506;SDS011;36461;52.018;21.036;2023-06-04T14:45:24;2.20;;;0.80;;
35506;SDS011;36461;52.018;21.036;2023-06-04T14:47:52;0.50;;;0.50;;
35506;SDS011;36461;52.018;21.036;2023-06-04T14:50:39;1.90;;;0.50;;
35506;SDS011;36461;52.018;21.036;2023-06-04T14:53:08;0.90;;;0.60;;
35506;SDS011;36461;52.018;21.036;2023-06-04T14:55:36;1.30;;;0.70;;
35506;SDS011;36461;52.018;21.036;2023-06-04T14:58:04;1.00;;;0.70;;
35506;SDS011;36461;52.018;21.036;2023-06-04T15:00:33;1.50;;;0.90;;
35506;SDS011;36461;52.018;21.036;2023-06-04T15:03:01;1.40;;;0.80;;
35506;SDS011;36461;52.018;21.036;2023-06-04T15:05:31;1.10;;;0.70;;
35506;SDS011;36461;52.018;21.036;2023-06-04T15:08:00;1.80;;;1.00;;
35506;SDS011;36461;52.018;21.036;2023-06-04T15:10:29;1.50;;;1.00;;
35506;SDS011;36461;52.018;21.036;2023-06-04T15:12:58;0.90;;;0.80;;